Track Косинов Владимир

Time Latitude Longitude Accuracy (66% radius in meters) Altitude (meters) Speed (km/hour) Bearing (degrees) Battery (%) GPS flag
10:53:00 51.753695 39.189643 8 178.71041118048 0 256.36016845703 47 1 delete
10:52:51 51.753695 39.189643 6 178.62877127283 0 256.36016845703 47 1 delete
10:52:39 51.753695 39.189643 4 178.5405832708 0 256.36016845703 47 1 delete
10:52:24 51.753695 39.189643 8 178.75798441724 0 256.36016845703 47 1 delete
10:52:12 51.753695 39.189643 12 178.95194394142 0 256.36016845703 47 1 delete
10:52:00 51.753695 39.189643 8 179.18108236525 0 256.36016845703 47 1 delete
10:51:48 51.753695 39.189643 6 179.44765357933 0 256.36016845703 47 1 delete
10:51:36 51.753695 39.189643 12 179.82358314903 0 256.36016845703 47 1 delete
10:51:24 51.753695 39.189643 12 180.30572261419 0 256.36016845703 47 1 delete
10:51:12 51.753695 39.189643 16 180.57999337519 0 256.36016845703 47 1 delete
10:51:00 51.753695 39.189643 12 180.72186386874 0 256.36016845703 47 1 delete
10:50:48 51.753695 39.189643 12 181.00177945655 0 256.36016845703 47 1 delete
10:50:36 51.753695 39.189643 12 181.11045831818 0 256.36016845703 47 1 delete
10:50:24 51.753695 39.189643 12 181.11374443443 0 256.36016845703 47 1 delete
10:50:12 51.753695 39.189643 4 180.81599133932 0 256.36016845703 47 1 delete
10:50:00 51.753695 39.189643 8 180.59299659463 0 256.36016845703 47 1 delete
10:49:48 51.753695 39.189643 12 180.34899181001 0 256.36016845703 47 1 delete
10:49:36 51.753695 39.189643 8 180.18388086837 0 256.36016845703 47 1 delete
10:49:24 51.753695 39.189643 8 179.8303700724 0 256.36016845703 47 1 delete
10:49:12 51.753695 39.189643 8 179.44837430866 0 256.36016845703 47 1 delete
10:49:00 51.753695 39.189643 12 178.94179035375 0 256.36016845703 47 1 delete
10:48:51 51.753695 39.189643 8 178.72631434268 0 256.36016845703 47 1 delete
10:48:39 51.753695 39.189643 6 178.5340344745 0 256.36016845703 47 1 delete
10:48:27 51.753695 39.189643 8 178.53080288383 0 256.36016845703 47 1 delete
10:48:15 51.753695 39.189643 12 178.46798694829 0 256.36016845703 47 1 delete
10:48:03 51.753695 39.189643 12 178.18918935098 0 256.36016845703 47 1 delete
10:47:51 51.753695 39.189643 12 177.82898051559 0 256.36016845703 47 1 delete
10:47:39 51.753695 39.189643 8 177.41699182343 0 256.36016845703 47 1 delete
10:47:27 51.753695 39.189643 12 177.13341051196 0 256.36016845703 47 1 delete
10:47:14 51.753695 39.189643 12 177.0094349154 0 256.36016845703 47 1 delete
10:46:59 51.753695 39.189643 16 176.83608850597 0 256.36016845703 47 1 delete
10:46:50 51.753695 39.189643 12 176.75487966989 0 256.36016845703 47 1 delete
10:46:38 51.753695 39.189643 12 176.80315756129 0 256.36016845703 47 1 delete
10:46:26 51.753695 39.189643 16 176.98826243633 0 256.36016845703 47 1 delete
10:46:11 51.753695 39.189643 6 177.19646932844 0 256.36016845703 47 1 delete
10:45:59 51.753695 39.189643 8 176.93386346684 0 256.36016845703 47 1 delete
10:45:50 51.753695 39.189643 12 175.86204708695 0.25348189473152 256.36016845703 47 1 delete
10:45:38 51.753695 39.189643 12 174.55463664314 0 256.36016845703 47 1 delete
10:45:26 51.753695 39.189643 16 174.27292688742 0 256.36016845703 47 1 delete
10:45:14 51.753695 39.189643 8 174.00144300465 0 256.36016845703 47 1 delete
10:45:02 51.753695 39.189643 12 173.74778133365 0 256.36016845703 47 1 delete
10:44:47 51.753695 39.189643 8 173.61787785572 0 256.36016845703 47 1 delete
10:44:35 51.753695 39.189643 6 173.55648610644 0 256.36016845703 47 1 delete
10:44:23 51.753695 39.189643 12 173.39654937056 0 256.36016845703 47 1 delete
10:44:11 51.753695 39.189643 12 173.19009531639 0 256.36016845703 47 1 delete
10:44:02 51.753695 39.189643 16 172.9190186573 0 256.36016845703 47 1 delete
10:43:50 51.753695 39.189643 8 172.88247369767 0 256.36016845703 47 1 delete
10:43:38 51.753695 39.189643 12 173.29402635164 0 256.36016845703 51 1 delete
10:43:26 51.753695 39.189643 6 173.54070997339 0 256.36016845703 51 1 delete
10:43:14 51.753695 39.189643 12 173.62672307352 0 256.36016845703 51 1 delete